Time;durP1;ratioP1;P1;durP2;ratioP2;P2;SDS_P1;SDS_P2;PMS_P1;PMS_P2;Temp;Humidity;BMP_temperature;BMP_pressure;BME280_temperature;BME280_humidity;BME280_pressure;Samples;Min_cycle;Max_cycle;Signal;HPM_P1;HPM_P2
2022/12/01 00:00:08;;;;;;;53.50;35.10;;;;;;;;;;5047795;28;20056;-77
2022/12/01 00:02:34;;;;;;;57.53;35.53;;;;;;;;;;5049473;28;20040;-76
2022/12/01 00:05:01;;;;;;;52.03;33.50;;;;;;;;;;5049633;28;20168;-79
2022/12/01 00:07:27;;;;;;;53.50;34.47;;;;;;;;;;5067364;28;20048;-80
2022/12/01 00:10:26;;;;;;;49.45;32.08;;;;;;;;;;5051898;28;20044;-79
2022/12/01 00:12:45;;;;;;;55.55;32.05;;;;;;;;;;5065256;28;20377;-80
2022/12/01 00:15:11;;;;;;;46.78;31.92;;;;;;;;;;5056606;28;20040;-79
2022/12/01 00:17:37;;;;;;;48.35;31.88;;;;;;;;;;5051754;28;20044;-79
2022/12/01 00:20:04;;;;;;;48.70;32.03;;;;;;;;;;5054732;28;20044;-79
2022/12/01 00:22:30;;;;;;;52.70;32.25;;;;;;;;;;5079763;28;20044;-79
2022/12/01 00:24:56;;;;;;;49.42;30.63;;;;;;;;;;5067266;28;20047;-79
2022/12/01 00:27:22;;;;;;;51.60;32.22;;;;;;;;;;5050855;28;20439;-80
2022/12/01 00:29:48;;;;;;;48.63;30.58;;;;;;;;;;5069084;28;20106;-79
2022/12/01 00:32:14;;;;;;;48.83;30.52;;;;;;;;;;5053909;28;20040;-80
2022/12/01 00:34:40;;;;;;;48.78;31.02;;;;;;;;;;5074451;28;20458;-79
2022/12/01 00:37:06;;;;;;;49.80;31.23;;;;;;;;;;5046500;28;20048;-80
2022/12/01 00:39:32;;;;;;;47.67;30.42;;;;;;;;;;5068898;28;20068;-79
2022/12/01 00:41:58;;;;;;;53.15;31.58;;;;;;;;;;5068162;28;20090;-79
2022/12/01 00:44:24;;;;;;;50.67;31.50;;;;;;;;;;5069526;28;20072;-79
2022/12/01 00:46:50;;;;;;;50.80;31.42;;;;;;;;;;5069578;28;20041;-79
2022/12/01 00:49:16;;;;;;;53.95;30.52;;;;;;;;;;5049990;28;20067;-79
2022/12/01 00:51:42;;;;;;;52.35;31.50;;;;;;;;;;5053350;28;20495;-79
2022/12/01 00:54:08;;;;;;;52.85;32.03;;;;;;;;;;5050871;28;20408;-79
2022/12/01 00:56:34;;;;;;;52.65;31.38;;;;;;;;;;5049709;28;20052;-80
2022/12/01 00:59:00;;;;;;;47.97;31.00;;;;;;;;;;5051459;28;20443;-80
2022/12/01 01:01:26;;;;;;;49.30;29.90;;;;;;;;;;5071654;28;20052;-80
2022/12/01 01:03:52;;;;;;;49.30;31.25;;;;;;;;;;5046645;28;20093;-79
2022/12/01 01:06:18;;;;;;;55.42;34.05;;;;;;;;;;5070334;28;20491;-80
2022/12/01 01:08:45;;;;;;;50.67;31.88;;;;;;;;;;5051632;28;20039;-79
2022/12/01 01:11:11;;;;;;;52.20;32.53;;;;;;;;;;5063950;28;20070;-80
2022/12/01 01:13:37;;;;;;;52.88;31.10;;;;;;;;;;5052262;28;20381;-79
2022/12/01 01:16:07;;;;;;;49.53;30.50;;;;;;;;;;5051774;28;20488;-79
2022/12/01 01:18:33;;;;;;;54.53;31.65;;;;;;;;;;5050104;28;20132;-80
2022/12/01 01:21:02;;;;;;;47.22;31.58;;;;;;;;;;5069910;28;20036;-79
2022/12/01 01:23:28;;;;;;;50.58;31.58;;;;;;;;;;5081395;28;20079;-80
2022/12/01 01:26:00;;;;;;;47.63;31.05;;;;;;;;;;5064576;28;20080;-80
2022/12/01 01:28:26;;;;;;;47.58;29.70;;;;;;;;;;5049343;28;20050;-79
2022/12/01 01:30:52;;;;;;;48.97;29.33;;;;;;;;;;5050626;28;20135;-79
2022/12/01 01:33:18;;;;;;;47.35;28.52;;;;;;;;;;5048898;28;20120;-80
2022/12/01 01:35:46;;;;;;;49.63;30.75;;;;;;;;;;5068520;28;20045;-79
2022/12/01 01:38:12;;;;;;;46.60;30.08;;;;;;;;;;5070991;28;20124;-80
2022/12/01 01:40:42;;;;;;;48.72;29.42;;;;;;;;;;5066317;28;20056;-80
2022/12/01 01:43:16;;;;;;;51.70;32.22;;;;;;;;;;5048347;28;20109;-80
2022/12/01 01:45:42;;;;;;;;;;;;;;;;;;5066806;28;20071;-80
2022/12/01 01:48:09;;;;;;;46.90;29.60;;;;;;;;;;5049967;28;20380;-79
2022/12/01 01:50:38;;;;;;;48.40;30.90;;;;;;;;;;5069882;28;20546;-79
2022/12/01 01:53:08;;;;;;;50.28;29.52;;;;;;;;;;5068450;28;20488;-79
2022/12/01 01:55:34;;;;;;;52.85;32.72;;;;;;;;;;5071007;28;20041;-79
2022/12/01 01:58:02;;;;;;;51.42;31.02;;;;;;;;;;5053232;28;20484;-79
2022/12/01 02:00:28;;;;;;;51.05;31.75;;;;;;;;;;5065606;28;20412;-79
2022/12/01 02:02:56;;;;;;;49.65;31.30;;;;;;;;;;5082420;28;20469;-80
2022/12/01 02:05:43;;;;;;;50.72;31.65;;;;;;;;;;5051817;28;20044;-79
2022/12/01 02:08:11;;;;;;;47.25;28.98;;;;;;;;;;5050977;28;20512;-79
2022/12/01 02:10:40;;;;;;;52.72;32.40;;;;;;;;;;5054873;28;20050;-79
2022/12/01 02:13:06;;;;;;;47.92;29.17;;;;;;;;;;5052429;28;20059;-79
2022/12/01 02:15:50;;;;;;;52.30;31.58;;;;;;;;;;5047672;28;20048;-78
2022/12/01 02:18:23;;;;;;;51.65;32.20;;;;;;;;;;5051489;28;20490;-79
2022/12/01 02:21:04;;;;;;;47.65;29.42;;;;;;;;;;5051606;28;20044;-79
2022/12/01 02:23:30;;;;;;;46.17;28.33;;;;;;;;;;5051645;28;20499;-79
2022/12/01 02:25:56;;;;;;;49.88;28.77;;;;;;;;;;5058532;28;20083;-78
2022/12/01 02:28:22;;;;;;;48.50;29.83;;;;;;;;;;5070575;28;20040;-79
2022/12/01 02:31:07;;;;;;;51.58;30.63;;;;;;;;;;5070373;28;20044;-78
2022/12/01 02:33:41;;;;;;;51.75;30.40;;;;;;;;;;5054323;28;20109;-79
2022/12/01 02:36:14;;;;;;;50.88;31.25;;;;;;;;;;5051235;28;20056;-79
2022/12/01 02:38:47;;;;;;;53.03;32.85;;;;;;;;;;5085631;28;20127;-79
2022/12/01 02:41:23;;;;;;;57.60;32.07;;;;;;;;;;5048826;28;20060;-79
2022/12/01 02:43:55;;;;;;;53.17;31.83;;;;;;;;;;5051151;28;20360;-79
2022/12/01 02:46:36;;;;;;;53.97;32.28;;;;;;;;;;5047521;28;20127;-79
2022/12/01 02:49:06;;;;;;;49.20;32.22;;;;;;;;;;5079652;28;20053;-78
2022/12/01 02:51:33;;;;;;;49.88;31.58;;;;;;;;;;5082065;28;20086;-78
2022/12/01 02:54:00;;;;;;;55.45;32.35;;;;;;;;;;5050420;28;20155;-79
2022/12/01 02:56:27;;;;;;;55.47;32.35;;;;;;;;;;5049270;28;20052;-81
2022/12/01 02:58:53;;;;;;;55.83;32.92;;;;;;;;;;5051935;28;20043;-80
2022/12/01 03:01:41;;;;;;;56.30;32.65;;;;;;;;;;5050850;28;20045;-79
2022/12/01 03:04:10;;;;;;;57.38;34.13;;;;;;;;;;5049597;28;20400;-79
2022/12/01 03:06:41;;;;;;;59.60;34.30;;;;;;;;;;5049023;28;20082;-79
2022/12/01 03:09:11;;;;;;;54.33;33.78;;;;;;;;;;5082867;28;20041;-80
2022/12/01 03:11:50;;;;;;;60.72;35.45;;;;;;;;;;5049597;28;20059;-79
2022/12/01 03:14:16;;;;;;;57.90;33.92;;;;;;;;;;5050739;28;20041;-80
2022/12/01 03:16:47;;;;;;;58.88;34.78;;;;;;;;;;5051635;28;20045;-79
2022/12/01 03:19:21;;;;;;;59.22;34.05;;;;;;;;;;5079695;28;20548;-79
2022/12/01 03:21:51;;;;;;;57.10;33.38;;;;;;;;;;5049259;28;20051;-80
2022/12/01 03:24:19;;;;;;;62.10;34.72;;;;;;;;;;5080972;28;20502;-79
2022/12/01 03:26:50;;;;;;;60.60;33.78;;;;;;;;;;5046263;28;20052;-79
2022/12/01 03:29:40;;;;;;;60.05;35.08;;;;;;;;;;5049403;28;20558;-78
2022/12/01 03:32:12;;;;;;;56.45;32.08;;;;;;;;;;5036457;28;20057;-79
2022/12/01 03:34:46;;;;;;;63.50;35.38;;;;;;;;;;5044741;28;20041;-79
2022/12/01 03:37:34;;;;;;;62.17;34.88;;;;;;;;;;5046175;28;20045;-79
2022/12/01 03:40:01;;;;;;;60.60;34.28;;;;;;;;;;5049485;28;20048;-79
2022/12/01 03:42:38;;;;;;;61.40;34.30;;;;;;;;;;5047709;28;20048;-79
2022/12/01 03:45:06;;;;;;;60.50;35.05;;;;;;;;;;5052396;28;20127;-80
2022/12/01 03:47:36;;;;;;;58.70;34.55;;;;;;;;;;5071396;28;20102;-80
2022/12/01 03:50:02;;;;;;;59.88;35.03;;;;;;;;;;5052546;28;20048;-79
2022/12/01 03:52:53;;;;;;;58.88;33.28;;;;;;;;;;5049612;28;20135;-79
2022/12/01 03:55:22;;;;;;;64.63;34.50;;;;;;;;;;5050053;28;20053;-79
2022/12/01 03:57:56;;;;;;;56.65;34.72;;;;;;;;;;5071639;28;20047;-79
2022/12/01 04:00:22;;;;;;;60.10;34.00;;;;;;;;;;5047749;28;20045;-79
2022/12/01 04:02:54;;;;;;;61.42;34.78;;;;;;;;;;5077913;28;20500;-79
2022/12/01 04:05:20;;;;;;;59.83;35.08;;;;;;;;;;5050679;28;20044;-79
2022/12/01 04:07:49;;;;;;;63.47;35.45;;;;;;;;;;5049489;28;20044;-80
2022/12/01 04:10:15;;;;;;;70.35;36.85;;;;;;;;;;5048976;28;20448;-79
2022/12/01 04:12:41;;;;;;;61.08;35.80;;;;;;;;;;5047889;28;20036;-79
2022/12/01 04:15:12;;;;;;;63.47;35.55;;;;;;;;;;5068086;28;20089;-79
2022/12/01 04:17:39;;;;;;;69.53;37.33;;;;;;;;;;5051541;28;20067;-79
2022/12/01 04:20:05;;;;;;;61.10;34.63;;;;;;;;;;5051107;28;20239;-79
2022/12/01 04:22:32;;;;;;;66.38;37.75;;;;;;;;;;5070821;28;20041;-79
2022/12/01 04:24:58;;;;;;;69.60;36.33;;;;;;;;;;5071819;28;20040;-79
2022/12/01 04:27:24;;;;;;;66.68;37.42;;;;;;;;;;5051436;28;20055;-79
2022/12/01 04:29:50;;;;;;;68.65;37.85;;;;;;;;;;5052923;28;20044;-79
2022/12/01 04:32:17;;;;;;;66.05;37.35;;;;;;;;;;5046183;28;20044;-79
2022/12/01 04:34:45;;;;;;;70.20;37.55;;;;;;;;;;5050896;28;20434;-79
2022/12/01 04:37:12;;;;;;;65.22;36.80;;;;;;;;;;5068413;28;20054;-79
2022/12/01 04:39:38;;;;;;;69.32;37.58;;;;;;;;;;5049617;28;20131;-79
2022/12/01 04:42:04;;;;;;;67.25;37.15;;;;;;;;;;5046693;28;20040;-79
2022/12/01 04:44:30;;;;;;;64.93;36.35;;;;;;;;;;5051405;28;20044;-79
2022/12/01 04:46:56;;;;;;;65.05;36.25;;;;;;;;;;5068833;28;20051;-79
2022/12/01 04:49:22;;;;;;;66.47;35.88;;;;;;;;;;5067291;28;20037;-79
2022/12/01 04:51:49;;;;;;;64.60;35.92;;;;;;;;;;5069967;28;20392;-79
2022/12/01 04:54:15;;;;;;;68.40;39.03;;;;;;;;;;5048974;28;20040;-79
2022/12/01 04:56:41;;;;;;;65.65;36.60;;;;;;;;;;5051083;28;20055;-79
2022/12/01 04:59:07;;;;;;;67.47;36.03;;;;;;;;;;5050947;28;20487;-79
2022/12/01 05:01:34;;;;;;;65.35;35.00;;;;;;;;;;5050571;28;20040;-79
2022/12/01 05:04:00;;;;;;;63.67;37.40;;;;;;;;;;5065687;28;20492;-79
2022/12/01 05:06:27;;;;;;;65.05;35.25;;;;;;;;;;5051032;28;20045;-80
2022/12/01 05:09:00;;;;;;;69.47;38.25;;;;;;;;;;5053390;28;20446;-79
2022/12/01 05:11:27;;;;;;;67.93;37.55;;;;;;;;;;5065851;28;20578;-79
2022/12/01 05:13:53;;;;;;;64.28;36.08;;;;;;;;;;5050516;28;20139;-79
2022/12/01 05:16:21;;;;;;;61.58;35.90;;;;;;;;;;5064799;28;20047;-79
2022/12/01 05:18:48;;;;;;;65.05;35.88;;;;;;;;;;5053006;28;20127;-79
2022/12/01 05:21:14;;;;;;;70.85;36.78;;;;;;;;;;5082631;28;20040;-79
2022/12/01 05:23:40;;;;;;;67.03;36.53;;;;;;;;;;5050960;28;20051;-79
2022/12/01 05:26:08;;;;;;;66.95;36.85;;;;;;;;;;5048852;28;20045;-79
2022/12/01 05:28:34;;;;;;;64.70;34.17;;;;;;;;;;5057876;28;20053;-79
2022/12/01 05:31:00;;;;;;;71.13;36.65;;;;;;;;;;5074691;28;20090;-79
2022/12/01 05:33:27;;;;;;;67.93;38.10;;;;;;;;;;5072076;28;20050;-80
2022/12/01 05:35:53;;;;;;;70.15;38.40;;;;;;;;;;5052786;28;20067;-79
2022/12/01 05:38:20;;;;;;;70.03;37.85;;;;;;;;;;5069411;28;20044;-80
2022/12/01 05:40:53;;;;;;;63.88;37.58;;;;;;;;;;5074609;28;20519;-79
2022/12/01 05:43:20;;;;;;;72.60;39.00;;;;;;;;;;5051416;28;20113;-80
2022/12/01 05:45:46;;;;;;;69.25;37.60;;;;;;;;;;5054938;28;20041;-80
2022/12/01 05:48:12;;;;;;;68.00;37.92;;;;;;;;;;5052964;28;20047;-79
2022/12/01 05:50:38;;;;;;;67.88;38.40;;;;;;;;;;5054127;28;20345;-79
2022/12/01 05:53:05;;;;;;;67.28;37.17;;;;;;;;;;5054130;28;20449;-80
2022/12/01 05:55:33;;;;;;;71.70;39.58;;;;;;;;;;5052922;28;20105;-80
2022/12/01 05:57:59;;;;;;;75.47;38.65;;;;;;;;;;5055387;28;20040;-79
2022/12/01 06:00:25;;;;;;;72.35;39.05;;;;;;;;;;5051418;28;20772;-79
2022/12/01 06:02:51;;;;;;;76.45;40.30;;;;;;;;;;5069341;28;20039;-79
2022/12/01 06:05:17;;;;;;;68.32;38.60;;;;;;;;;;5069454;28;20041;-80
2022/12/01 06:07:43;;;;;;;72.32;37.45;;;;;;;;;;5049145;28;20120;-80
2022/12/01 06:10:09;;;;;;;68.03;38.15;;;;;;;;;;5053225;28;20041;-79
2022/12/01 06:12:36;;;;;;;63.35;36.20;;;;;;;;;;5053686;28;20068;-80
2022/12/01 06:15:02;;;;;;;69.65;37.72;;;;;;;;;;5070501;28;20093;-80
2022/12/01 06:17:28;;;;;;;69.82;36.60;;;;;;;;;;5053446;28;20454;-80
2022/12/01 06:19:54;;;;;;;66.85;37.85;;;;;;;;;;5052768;28;20040;-80
2022/12/01 06:22:23;;;;;;;68.63;37.13;;;;;;;;;;5053554;28;20501;-80
2022/12/01 06:24:49;;;;;;;71.93;38.15;;;;;;;;;;5069822;28;20480;-80
2022/12/01 06:27:15;;;;;;;72.55;39.63;;;;;;;;;;5067139;28;20085;-80
2022/12/01 06:29:41;;;;;;;65.38;35.63;;;;;;;;;;5053620;28;20040;-80
2022/12/01 06:32:07;;;;;;;65.50;37.53;;;;;;;;;;5051691;28;20051;-80
2022/12/01 06:34:33;;;;;;;62.85;35.63;;;;;;;;;;5060352;28;20606;-80
2022/12/01 06:36:59;;;;;;;71.70;38.15;;;;;;;;;;5054313;28;20079;-80
2022/12/01 06:39:25;;;;;;;67.18;36.42;;;;;;;;;;5050740;28;21537;-80
2022/12/01 06:41:51;;;;;;;56.53;34.75;;;;;;;;;;5069811;28;20055;-80
2022/12/01 06:44:17;;;;;;;66.72;37.28;;;;;;;;;;5049321;28;20036;-80
2022/12/01 06:46:43;;;;;;;67.75;36.80;;;;;;;;;;5065902;28;20045;-80
2022/12/01 06:49:13;;;;;;;65.47;35.38;;;;;;;;;;5051737;28;20045;-79
2022/12/01 06:51:39;;;;;;;60.78;35.42;;;;;;;;;;5052538;28;20101;-79
2022/12/01 06:54:05;;;;;;;62.97;35.28;;;;;;;;;;5072680;28;20127;-79
2022/12/01 06:56:31;;;;;;;65.32;36.53;;;;;;;;;;5052039;28;20040;-78
2022/12/01 06:58:57;;;;;;;74.38;39.63;;;;;;;;;;5048457;28;20043;-79
2022/12/01 07:01:23;;;;;;;66.53;37.28;;;;;;;;;;5049520;28;20583;-79
2022/12/01 07:03:49;;;;;;;62.70;35.28;;;;;;;;;;5052257;28;20070;-79
2022/12/01 07:06:16;;;;;;;62.63;35.80;;;;;;;;;;5049940;28;20041;-79
2022/12/01 07:08:42;;;;;;;61.20;34.60;;;;;;;;;;5067402;28;20044;-79
2022/12/01 07:11:11;;;;;;;63.20;37.10;;;;;;;;;;5065698;28;20044;-79
2022/12/01 07:13:37;;;;;;;64.85;37.28;;;;;;;;;;5050624;28;20501;-79
2022/12/01 07:16:03;;;;;;;62.58;34.92;;;;;;;;;;5050616;28;20051;-79
2022/12/01 07:18:30;;;;;;;71.05;39.42;;;;;;;;;;5050949;28;20045;-79
2022/12/01 07:21:02;;;;;;;71.35;38.60;;;;;;;;;;5084033;28;20045;-79
2022/12/01 07:23:28;;;;;;;74.72;42.55;;;;;;;;;;5049872;28;21858;-79
2022/12/01 07:26:01;;;;;;;70.93;37.65;;;;;;;;;;5069077;28;20044;-79
2022/12/01 07:28:28;;;;;;;64.90;37.63;;;;;;;;;;5050958;28;20074;-79
2022/12/01 07:30:59;;;;;;;63.40;36.97;;;;;;;;;;5069493;28;20047;-79
2022/12/01 07:33:26;;;;;;;61.25;35.25;;;;;;;;;;5058461;28;20056;-79
2022/12/01 07:35:52;;;;;;;62.15;35.05;;;;;;;;;;5080792;28;20048;-78
2022/12/01 07:38:18;;;;;;;72.38;37.92;;;;;;;;;;5083702;28;20125;-80
2022/12/01 07:40:44;;;;;;;70.90;36.47;;;;;;;;;;5065117;28;20795;-79
2022/12/01 07:43:10;;;;;;;72.90;38.03;;;;;;;;;;5065126;28;20119;-79
2022/12/01 07:45:36;;;;;;;68.07;37.88;;;;;;;;;;5053231;28;20132;-79
2022/12/01 07:48:02;;;;;;;64.38;37.30;;;;;;;;;;5070401;28;20380;-79
2022/12/01 07:50:31;;;;;;;64.13;34.92;;;;;;;;;;5071608;28;20173;-79
2022/12/01 07:52:57;;;;;;;65.35;36.33;;;;;;;;;;5051763;28;20391;-80
2022/12/01 07:55:23;;;;;;;80.57;38.72;;;;;;;;;;5055300;28;20040;-79
2022/12/01 07:57:49;;;;;;;80.82;38.42;;;;;;;;;;5067555;28;20057;-78
2022/12/01 08:00:16;;;;;;;99.85;40.50;;;;;;;;;;5079441;28;20051;-79
2022/12/01 08:02:41;;;;;;;103.50;39.88;;;;;;;;;;5052135;28;20040;-78
2022/12/01 08:05:08;;;;;;;78.10;39.70;;;;;;;;;;5047739;28;20051;-79
2022/12/01 08:07:34;;;;;;;70.97;38.65;;;;;;;;;;5051210;28;20040;-79
2022/12/01 08:10:00;;;;;;;64.20;36.78;;;;;;;;;;5053800;28;20044;-79
2022/12/01 08:12:26;;;;;;;70.75;37.97;;;;;;;;;;5051969;28;20051;-78
2022/12/01 08:14:52;;;;;;;75.60;45.72;;;;;;;;;;5069878;28;20055;-78
2022/12/01 08:17:18;;;;;;;66.80;39.40;;;;;;;;;;5064720;28;20048;-78
2022/12/01 08:19:44;;;;;;;68.70;36.38;;;;;;;;;;5071469;28;20048;-79
2022/12/01 08:22:10;;;;;;;66.38;35.88;;;;;;;;;;5051917;28;20045;-78
2022/12/01 08:24:36;;;;;;;63.70;34.83;;;;;;;;;;5070390;28;20131;-79
2022/12/01 08:27:02;;;;;;;61.78;34.67;;;;;;;;;;5051887;28;20097;-79
2022/12/01 08:29:28;;;;;;;62.25;34.30;;;;;;;;;;5053903;28;20128;-79
2022/12/01 08:31:56;;;;;;;55.15;33.50;;;;;;;;;;5068222;28;20044;-79
2022/12/01 08:34:22;;;;;;;55.47;31.95;;;;;;;;;;5053010;28;20566;-79
2022/12/01 08:36:48;;;;;;;57.20;33.28;;;;;;;;;;5071310;28;20162;-78
2022/12/01 08:39:14;;;;;;;61.60;34.58;;;;;;;;;;5052888;28;20044;-78
2022/12/01 08:41:41;;;;;;;58.53;33.90;;;;;;;;;;5053092;28;20049;-78
2022/12/01 08:44:10;;;;;;;57.78;34.28;;;;;;;;;;5053078;28;20044;-79
2022/12/01 08:46:36;;;;;;;57.47;31.60;;;;;;;;;;5069018;28;20502;-79
2022/12/01 08:49:03;;;;;;;56.72;30.88;;;;;;;;;;5068439;28;20129;-79
2022/12/01 08:51:29;;;;;;;53.08;28.80;;;;;;;;;;5086552;28;20166;-79
2022/12/01 08:53:56;;;;;;;51.10;29.60;;;;;;;;;;5070845;28;20044;-78
2022/12/01 08:56:24;;;;;;;60.67;32.35;;;;;;;;;;5046919;28;20045;-78
2022/12/01 08:58:50;;;;;;;53.75;31.70;;;;;;;;;;5083298;28;20426;-79
2022/12/01 09:01:17;;;;;;;53.22;31.05;;;;;;;;;;5051460;28;20051;-79
2022/12/01 09:03:43;;;;;;;50.25;31.08;;;;;;;;;;5086937;28;20032;-79
2022/12/01 09:06:11;;;;;;;48.65;30.65;;;;;;;;;;5075265;28;20439;-79
2022/12/01 09:08:37;;;;;;;53.85;30.27;;;;;;;;;;5050626;28;20473;-79
2022/12/01 09:11:04;;;;;;;51.78;30.55;;;;;;;;;;5073884;28;20475;-79
2022/12/01 09:13:31;;;;;;;57.95;29.77;;;;;;;;;;5056155;28;20423;-79
2022/12/01 09:15:58;;;;;;;47.13;27.30;;;;;;;;;;5055128;28;20043;-79
2022/12/01 09:18:25;;;;;;;42.08;25.33;;;;;;;;;;5073521;28;20072;-80
2022/12/01 09:20:51;;;;;;;42.47;24.38;;;;;;;;;;5055060;28;20044;-79
2022/12/01 09:23:17;;;;;;;34.72;20.80;;;;;;;;;;5069642;28;20040;-79
2022/12/01 09:25:43;;;;;;;34.03;19.83;;;;;;;;;;5055485;28;20063;-79
2022/12/01 09:28:09;;;;;;;45.30;19.42;;;;;;;;;;5050884;28;20044;-79
2022/12/01 09:30:35;;;;;;;37.03;18.63;;;;;;;;;;5072884;28;20044;-79
2022/12/01 09:33:02;;;;;;;34.13;17.77;;;;;;;;;;5056660;28;20167;-79
2022/12/01 09:35:30;;;;;;;32.08;17.25;;;;;;;;;;5055565;28;20041;-79
2022/12/01 09:37:56;;;;;;;52.00;19.45;;;;;;;;;;5055354;28;20047;-79
2022/12/01 09:40:25;;;;;;;43.58;17.88;;;;;;;;;;5054420;28;20083;-79
2022/12/01 09:42:51;;;;;;;36.42;17.13;;;;;;;;;;5087033;28;20072;-79
2022/12/01 09:45:25;;;;;;;30.17;15.32;;;;;;;;;;5076040;28;20096;-84
2022/12/01 09:47:52;;;;;;;28.65;16.52;;;;;;;;;;5051568;28;20444;-79
2022/12/01 09:50:24;;;;;;;29.23;16.50;;;;;;;;;;5072633;28;20055;-79
2022/12/01 09:52:52;;;;;;;22.70;14.50;;;;;;;;;;5047533;28;20040;-79
2022/12/01 09:55:19;;;;;;;24.48;14.43;;;;;;;;;;5065926;28;20129;-79
2022/12/01 09:57:48;;;;;;;23.42;14.18;;;;;;;;;;5070891;28;20052;-79
2022/12/01 10:00:15;;;;;;;22.33;13.90;;;;;;;;;;5061848;28;20497;-80
2022/12/01 10:03:01;;;;;;;21.85;14.68;;;;;;;;;;5072024;28;20040;-80
2022/12/01 10:05:31;;;;;;;26.10;14.80;;;;;;;;;;5053686;28;20045;-79
2022/12/01 10:07:59;;;;;;;34.20;14.90;;;;;;;;;;5053207;28;20047;-79
2022/12/01 10:10:28;;;;;;;32.25;14.70;;;;;;;;;;5087438;28;20048;-80
2022/12/01 10:12:54;;;;;;;28.65;16.20;;;;;;;;;;5078336;28;20111;-79
2022/12/01 10:15:23;;;;;;;44.00;17.33;;;;;;;;;;5047973;28;20082;-79
2022/12/01 10:17:55;;;;;;;31.83;17.10;;;;;;;;;;5049299;28;20040;-79
2022/12/01 10:20:23;;;;;;;28.63;17.13;;;;;;;;;;4980441;28;20049;-79
2022/12/01 10:23:00;;;;;;;29.58;16.67;;;;;;;;;;5039745;28;20128;-80
2022/12/01 10:25:27;;;;;;;28.08;16.55;;;;;;;;;;5028251;28;20479;-79
2022/12/01 10:28:22;;;;;;;25.65;15.10;;;;;;;;;;5024913;28;20045;-79
2022/12/01 10:30:49;;;;;;;25.20;15.48;;;;;;;;;;5023067;28;20053;-79
2022/12/01 10:33:22;;;;;;;22.65;14.48;;;;;;;;;;5029664;28;20504;-80
2022/12/01 10:35:48;;;;;;;23.05;14.45;;;;;;;;;;5031571;28;20040;-79
2022/12/01 10:38:21;;;;;;;23.38;14.60;;;;;;;;;;5031845;28;20102;-79
2022/12/01 10:40:49;;;;;;;36.83;14.70;;;;;;;;;;5031315;28;20106;-79
2022/12/01 10:43:16;;;;;;;23.58;14.30;;;;;;;;;;5030146;28;20056;-79
2022/12/01 10:45:44;;;;;;;18.40;12.77;;;;;;;;;;5033161;28;20045;-79
2022/12/01 10:48:17;;;;;;;19.67;12.02;;;;;;;;;;5030080;28;20049;-79
2022/12/01 10:50:48;;;;;;;21.38;12.77;;;;;;;;;;5030493;28;20139;-79
2022/12/01 10:53:25;;;;;;;18.15;11.50;;;;;;;;;;5032035;28;20080;-79
2022/12/01 10:55:55;;;;;;;17.35;11.35;;;;;;;;;;5049896;28;20037;-79
2022/12/01 10:58:22;;;;;;;18.10;12.25;;;;;;;;;;5032083;28;20041;-79
2022/12/01 11:00:56;;;;;;;19.70;12.23;;;;;;;;;;5044247;28;20076;-80
2022/12/01 11:03:23;;;;;;;14.57;10.52;;;;;;;;;;5031681;28;20052;-79
2022/12/01 11:05:52;;;;;;;14.23;10.55;;;;;;;;;;5028619;28;20052;-79
2022/12/01 11:08:22;;;;;;;16.27;11.10;;;;;;;;;;5048739;28;20041;-79
2022/12/01 11:10:48;;;;;;;15.35;10.88;;;;;;;;;;5026828;28;20037;-79
2022/12/01 11:13:21;;;;;;;13.15;9.00;;;;;;;;;;5028697;28;20053;-79
2022/12/01 11:15:52;;;;;;;12.25;9.15;;;;;;;;;;5028829;28;20071;-79
2022/12/01 11:18:28;;;;;;;13.75;9.52;;;;;;;;;;5025706;28;20053;-79
2022/12/01 11:21:20;;;;;;;13.45;9.05;;;;;;;;;;5046025;28;20053;-78
2022/12/01 11:23:48;;;;;;;13.98;9.90;;;;;;;;;;5024251;28;20132;-79
2022/12/01 11:26:14;;;;;;;14.93;9.23;;;;;;;;;;5022534;28;20049;-79
2022/12/01 11:28:42;;;;;;;14.07;9.63;;;;;;;;;;5029608;28;20114;-78
2022/12/01 11:31:10;;;;;;;13.52;9.23;;;;;;;;;;5045345;28;20099;-79
2022/12/01 11:33:43;;;;;;;13.30;9.30;;;;;;;;;;5027324;28;20049;-82
2022/12/01 11:36:09;;;;;;;14.98;9.98;;;;;;;;;;5028923;28;20439;-77
2022/12/01 11:38:35;;;;;;;14.02;9.77;;;;;;;;;;5030287;28;20099;-77
2022/12/01 11:41:01;;;;;;;14.20;9.30;;;;;;;;;;5031534;28;20053;-76
2022/12/01 11:43:35;;;;;;;12.38;8.32;;;;;;;;;;5046325;28;20087;-77
2022/12/01 11:46:07;;;;;;;13.40;8.88;;;;;;;;;;5030408;28;20048;-76
2022/12/01 11:48:35;;;;;;;13.38;8.98;;;;;;;;;;5026740;28;20044;-77
2022/12/01 11:51:01;;;;;;;16.40;9.70;;;;;;;;;;5046330;28;20436;-76
2022/12/01 11:53:31;;;;;;;15.82;9.45;;;;;;;;;;5022685;28;20037;-76
2022/12/01 11:56:16;;;;;;;14.80;9.70;;;;;;;;;;5043711;28;20044;-75
2022/12/01 11:58:46;;;;;;;13.23;9.27;;;;;;;;;;5032759;28;20044;-75
2022/12/01 12:01:27;;;;;;;14.93;9.60;;;;;;;;;;5024543;28;20492;-76
2022/12/01 12:04:05;;;;;;;15.18;9.35;;;;;;;;;;5021846;28;20040;-75
2022/12/01 12:06:47;;;;;;;12.63;8.23;;;;;;;;;;5043629;28;20397;-78
2022/12/01 12:09:38;;;;;;;11.77;8.68;;;;;;;;;;5048970;28;20045;-76
2022/12/01 12:12:04;;;;;;;15.55;10.02;;;;;;;;;;5029495;28;20044;-76
2022/12/01 12:14:53;;;;;;;13.25;9.10;;;;;;;;;;5030853;28;20090;-76
2022/12/01 12:17:19;;;;;;;13.50;9.35;;;;;;;;;;5019761;28;20088;-75
2022/12/01 12:19:51;;;;;;;11.88;8.25;;;;;;;;;;5027754;28;20045;-75
2022/12/01 12:22:20;;;;;;;13.85;8.95;;;;;;;;;;5029446;28;20147;-75
2022/12/01 12:24:49;;;;;;;15.25;13.30;;;;;;;;;;5049930;28;20412;-75
2022/12/01 12:27:15;;;;;;;10.48;7.75;;;;;;;;;;5029326;28;20040;-75
2022/12/01 12:29:57;;;;;;;10.85;7.45;;;;;;;;;;5029447;28;20045;-75
2022/12/01 12:32:42;;;;;;;10.85;7.60;;;;;;;;;;5029096;28;20832;-75
2022/12/01 12:35:16;;;;;;;12.20;7.47;;;;;;;;;;5047659;28;20044;-75
2022/12/01 12:37:48;;;;;;;11.40;7.00;;;;;;;;;;5030455;28;20037;-75
2022/12/01 12:40:17;;;;;;;14.05;7.90;;;;;;;;;;5023988;28;20055;-75
2022/12/01 12:42:48;;;;;;;10.25;6.88;;;;;;;;;;5029445;28;20559;-74
2022/12/01 12:45:18;;;;;;;12.90;7.68;;;;;;;;;;5028182;28;20041;-75
2022/12/01 12:47:47;;;;;;;12.55;5.68;;;;;;;;;;5020974;28;20049;-75
2022/12/01 12:50:16;;;;;;;12.82;7.18;;;;;;;;;;5025943;28;20041;-75
2022/12/01 12:52:44;;;;;;;7.72;5.22;;;;;;;;;;5022816;28;20099;-74
2022/12/01 12:55:18;;;;;;;13.50;6.45;;;;;;;;;;5021251;28;20045;-74
2022/12/01 12:57:47;;;;;;;21.23;7.45;;;;;;;;;;5031110;28;20045;-74
2022/12/01 13:00:15;;;;;;;9.23;6.28;;;;;;;;;;5023998;28;20045;-74
2022/12/01 13:03:04;;;;;;;9.88;8.23;;;;;;;;;;5023288;28;20402;-75
2022/12/01 13:05:35;;;;;;;10.50;7.00;;;;;;;;;;5022299;28;20061;-75
2022/12/01 13:08:06;;;;;;;8.27;6.40;;;;;;;;;;5024457;28;20054;-74
2022/12/01 13:10:42;;;;;;;8.65;6.22;;;;;;;;;;5025626;28;20041;-74
2022/12/01 13:13:23;;;;;;;8.55;6.32;;;;;;;;;;5025160;28;20037;-74
2022/12/01 13:15:50;;;;;;;10.57;6.45;;;;;;;;;;5025978;28;20049;-74
2022/12/01 13:18:39;;;;;;;9.85;6.07;;;;;;;;;;5025006;28;20126;-74
2022/12/01 13:21:05;;;;;;;10.90;7.13;;;;;;;;;;5024551;28;20474;-74
2022/12/01 13:23:32;;;;;;;12.63;6.38;;;;;;;;;;5026142;28;20168;-74
2022/12/01 13:25:59;;;;;;;21.02;6.82;;;;;;;;;;5027543;28;20064;-74
2022/12/01 13:28:27;;;;;;;12.93;6.30;;;;;;;;;;5026667;28;20130;-74
2022/12/01 13:30:57;;;;;;;8.32;6.30;;;;;;;;;;5027977;28;20050;-75
2022/12/01 13:33:23;;;;;;;10.80;9.60;;;;;;;;;;5027388;28;20094;-74
2022/12/01 13:35:53;;;;;;;8.40;6.53;;;;;;;;;;5026311;28;20504;-74
2022/12/01 13:38:23;;;;;;;9.95;6.65;;;;;;;;;;5025321;28;20129;-74
2022/12/01 13:41:09;;;;;;;7.72;6.35;;;;;;;;;;5037903;28;20056;-74
2022/12/01 13:43:36;;;;;;;7.18;5.90;;;;;;;;;;5028850;28;20478;-75
2022/12/01 13:46:02;;;;;;;6.90;5.70;;;;;;;;;;5027974;28;20106;-75
2022/12/01 13:48:48;;;;;;;7.63;5.55;;;;;;;;;;5030371;28;20049;-74
2022/12/01 13:51:14;;;;;;;8.00;6.63;;;;;;;;;;5032670;28;20041;-74
2022/12/01 13:53:56;;;;;;;9.88;6.18;;;;;;;;;;5033193;28;20496;-74
2022/12/01 13:56:35;;;;;;;9.02;5.47;;;;;;;;;;5030471;28;20068;-74
2022/12/01 13:59:02;;;;;;;13.38;5.57;;;;;;;;;;5047055;28;20051;-74
2022/12/01 14:01:30;;;;;;;9.50;5.68;;;;;;;;;;5049107;28;20067;-74
2022/12/01 14:03:56;;;;;;;9.63;5.40;;;;;;;;;;5032630;28;20370;-74
2022/12/01 14:06:28;;;;;;;8.10;4.95;;;;;;;;;;5032126;28;20091;-74
2022/12/01 14:08:59;;;;;;;8.98;4.75;;;;;;;;;;5033359;28;20339;-74
2022/12/01 14:11:26;;;;;;;6.57;4.90;;;;;;;;;;5046655;28;20709;-74
2022/12/01 14:14:03;;;;;;;5.55;4.53;;;;;;;;;;5047142;28;20033;-74
2022/12/01 14:16:46;;;;;;;6.07;4.95;;;;;;;;;;5031047;28;20053;-74
2022/12/01 14:19:31;;;;;;;6.13;4.35;;;;;;;;;;5045838;28;20136;-74
2022/12/01 14:21:58;;;;;;;8.10;4.35;;;;;;;;;;5045582;28;20103;-75
2022/12/01 14:24:27;;;;;;;6.43;4.65;;;;;;;;;;5029902;28;20048;-74
2022/12/01 14:26:54;;;;;;;5.75;4.57;;;;;;;;;;5029273;28;20037;-74
2022/12/01 14:29:25;;;;;;;14.07;5.65;;;;;;;;;;5049883;28;20051;-74
2022/12/01 14:31:51;;;;;;;9.88;5.20;;;;;;;;;;5050015;28;20052;-74